Time;durP1;ratioP1;P1;durP2;ratioP2;P2;SDS_P1;SDS_P2;PMS_P1;PMS_P2;Temp;Humidity;BMP_temperature;BMP_pressure;BME280_temperature;BME280_humidity;BME280_pressure;Samples;Min_cycle;Max_cycle;Signal;HPM_P1;HPM_P2
2023/07/03 00:00:58;;;;;;;13.20;9.00;;;;;;;16.73;69.04;155660.53;4986830;28;20527;-87
2023/07/03 00:03:27;;;;;;;13.93;9.07;;;;;;;16.74;68.81;155661.88;4993868;28;20524;-84
2023/07/03 00:06:09;;;;;;;13.07;9.40;;;;;;;16.73;69.42;155660.53;4996809;28;20871;-84
2023/07/03 00:08:36;;;;;;;12.77;9.07;;;;;;;16.69;69.70;155648.84;5003233;28;20495;-84
2023/07/03 00:11:06;;;;;;;15.57;10.30;;;;;;;16.64;69.78;155637.16;4996977;28;20539;-85
2023/07/03 00:13:32;;;;;;;14.70;9.50;;;;;;;16.62;69.60;155630.66;5000254;28;20447;-85
2023/07/03 00:16:00;;;;;;;13.43;9.20;;;;;;;16.62;70.29;155631.97;4996734;28;20452;-84
2023/07/03 00:18:28;;;;;;;13.07;9.90;;;;;;;16.56;70.18;155616.34;5008121;28;20488;-84
2023/07/03 00:20:55;;;;;;;12.50;8.63;;;;;;;16.54;70.46;155609.84;4975397;28;20464;-85
2023/07/03 00:23:21;;;;;;;13.20;10.33;;;;;;;16.49;70.73;155598.09;4990405;28;20499;-85
2023/07/03 00:25:48;;;;;;;16.40;10.33;;;;;;;16.47;70.37;155591.59;5004254;28;20803;-84
2023/07/03 00:28:17;;;;;;;13.17;9.30;;;;;;;16.48;70.89;155594.16;4980179;28;20453;-86
2023/07/03 00:30:44;;;;;;;15.23;9.43;;;;;;;16.46;71.03;155590.28;4995042;28;20531;-86
2023/07/03 00:33:11;;;;;;;12.63;9.50;;;;;;;16.46;71.35;155590.28;4997813;28;20508;-85
2023/07/03 00:35:38;;;;;;;13.80;9.87;;;;;;;16.45;72.37;155587.66;4997299;28;20531;-84
2023/07/03 00:38:04;;;;;;;10.03;8.30;;;;;;;16.43;71.52;155582.47;4994281;28;20448;-85
2023/07/03 00:40:31;;;;;;;12.77;9.70;;;;;;;16.44;72.23;155586.38;4970884;28;20472;-84
2023/07/03 00:42:58;;;;;;;12.80;10.60;;;;;;;16.47;73.22;155592.88;4988366;28;20480;-85
2023/07/03 00:45:27;;;;;;;13.00;8.40;;;;;;;16.50;71.94;155599.38;4988688;28;20457;-86
2023/07/03 00:47:54;;;;;;;13.73;9.70;;;;;;;16.54;71.24;155611.16;4989316;28;20528;-85
2023/07/03 00:50:21;;;;;;;16.00;10.30;;;;;;;16.54;70.19;155609.84;4977401;28;20468;-87
2023/07/03 00:52:51;;;;;;;11.43;8.80;;;;;;;16.59;70.08;155624.16;4969370;28;20990;-85
2023/07/03 00:55:18;;;;;;;12.00;8.80;;;;;;;16.63;70.87;155634.53;4982571;28;20460;-85
2023/07/03 00:57:45;;;;;;;13.40;9.60;;;;;;;16.66;71.85;155642.34;4990087;28;20479;-85
2023/07/03 01:00:13;;;;;;;12.40;8.87;;;;;;;16.67;70.23;155644.97;4998569;28;20806;-85
2023/07/03 01:02:45;;;;;;;14.60;9.60;;;;;;;16.70;71.94;155652.78;4988969;28;20476;-85
2023/07/03 01:05:15;;;;;;;11.63;8.73;;;;;;;16.70;70.43;155651.47;4993268;28;20539;-85
2023/07/03 01:07:42;;;;;;;12.07;8.90;;;;;;;16.73;70.52;155660.53;4974007;28;20984;-85
2023/07/03 01:10:11;;;;;;;14.90;9.33;;;;;;;16.76;70.85;155668.38;4982182;28;20461;-85
2023/07/03 01:12:40;;;;;;;15.47;9.43;;;;;;;16.80;70.06;155677.47;4967144;28;20449;-85
2023/07/03 01:15:10;;;;;;;11.33;9.20;;;;;;;16.81;70.26;155681.38;4990439;28;20477;-85
2023/07/03 01:17:40;;;;;;;15.33;9.37;;;;;;;16.86;70.59;155694.41;4966163;28;20512;-85
2023/07/03 01:20:11;;;;;;;13.53;9.33;;;;;;;16.87;70.58;155697.00;4982801;28;20473;-85
2023/07/03 01:22:43;;;;;;;11.47;9.10;;;;;;;16.87;70.39;155697.00;5000263;28;20465;-85
2023/07/03 01:25:15;;;;;;;14.50;9.30;;;;;;;16.87;70.92;155697.00;4977686;28;20521;-85
2023/07/03 01:27:44;;;;;;;14.63;9.50;;;;;;;16.85;70.48;155691.81;4986398;28;20571;-87
2023/07/03 01:30:15;;;;;;;11.43;8.70;;;;;;;16.89;70.25;155702.19;4982488;28;20483;-85
2023/07/03 01:32:47;;;;;;;19.97;9.50;;;;;;;16.90;70.14;155703.50;4985046;28;21048;-87
2023/07/03 01:35:14;;;;;;;13.37;9.10;;;;;;;16.90;69.99;155703.50;4969647;28;20469;-87
2023/07/03 01:37:46;;;;;;;14.80;10.10;;;;;;;16.89;70.48;155700.94;4997625;28;20473;-84
2023/07/03 01:40:18;;;;;;;13.03;9.13;;;;;;;16.88;69.88;155699.63;4996373;28;20468;-87
2023/07/03 01:42:45;;;;;;;12.67;8.10;;;;;;;16.90;70.53;155704.81;4998855;28;20462;-86
2023/07/03 01:45:13;;;;;;;14.00;10.00;;;;;;;16.92;70.72;155710.00;4957244;28;20466;-87
2023/07/03 01:47:40;;;;;;;12.57;8.73;;;;;;;16.93;70.04;155712.63;4985404;28;20445;-87
2023/07/03 01:50:11;;;;;;;12.67;9.07;;;;;;;16.93;70.46;155712.63;5000437;28;20488;-87
2023/07/03 01:52:40;;;;;;;15.80;10.00;;;;;;;16.94;70.21;155713.94;4974697;28;20796;-87
2023/07/03 01:55:12;;;;;;;12.67;8.77;;;;;;;16.93;71.05;155712.63;4993587;28;20568;-87
2023/07/03 01:57:42;;;;;;;13.53;9.50;;;;;;;16.94;70.29;155715.19;4981444;28;20501;-87
2023/07/03 02:00:14;;;;;;;15.37;8.40;;;;;;;16.96;70.97;155720.44;4963309;28;20458;-86
2023/07/03 02:02:42;;;;;;;16.30;9.40;;;;;;;16.94;71.04;155715.19;5000173;28;21059;-87
2023/07/03 02:05:11;;;;;;;18.23;9.53;;;;;;;16.91;69.99;155707.44;5002933;28;20480;-86
2023/07/03 02:07:40;;;;;;;11.80;8.77;;;;;;;16.94;70.08;155713.94;4978686;28;20458;-86
2023/07/03 02:10:09;;;;;;;12.10;8.63;;;;;;;16.93;69.30;155712.63;5000740;28;20461;-87
2023/07/03 02:12:37;;;;;;;11.40;9.47;;;;;;;16.92;69.75;155708.69;5000646;28;20489;-86
2023/07/03 02:15:07;;;;;;;11.37;9.20;;;;;;;16.92;70.16;155710.00;5004069;28;20549;-87
2023/07/03 02:17:34;;;;;;;14.57;9.80;;;;;;;16.92;69.90;155710.00;4982585;28;20463;-87
2023/07/03 02:20:00;;;;;;;14.90;9.63;;;;;;;16.91;70.33;155707.44;4949964;28;20462;-87
2023/07/03 02:22:27;;;;;;;13.53;9.30;;;;;;;16.92;70.91;155710.00;5005387;28;20828;-87
2023/07/03 02:24:53;;;;;;;12.03;9.70;;;;;;;16.91;70.46;155706.13;5001981;28;20558;-87
2023/07/03 02:27:20;;;;;;;12.53;9.70;;;;;;;16.91;70.04;155707.44;4998564;28;20543;-87
2023/07/03 02:29:47;;;;;;;15.17;9.93;;;;;;;16.90;69.82;155704.81;4989120;28;20465;-86
2023/07/03 02:32:15;;;;;;;11.77;8.90;;;;;;;16.91;71.26;155707.44;4963354;28;20461;-86
2023/07/03 02:34:41;;;;;;;14.17;10.80;;;;;;;16.87;70.27;155697.00;5004308;28;20475;-87
2023/07/03 02:37:09;;;;;;;15.63;9.50;;;;;;;16.88;70.46;155699.63;4979153;28;20478;-86
2023/07/03 02:39:36;;;;;;;13.70;10.27;;;;;;;16.88;70.76;155699.63;4993132;28;20456;-87
2023/07/03 02:42:03;;;;;;;15.07;9.30;;;;;;;16.86;71.75;155694.41;4989151;28;20815;-86
2023/07/03 02:44:30;;;;;;;12.63;9.07;;;;;;;16.82;71.72;155684.00;4989241;28;20487;-86
2023/07/03 02:46:56;;;;;;;14.20;10.03;;;;;;;16.79;72.42;155674.88;4993109;28;20460;-86
2023/07/03 02:49:28;;;;;;;14.80;9.80;;;;;;;16.78;72.29;155673.59;4975397;28;21004;-86
2023/07/03 02:51:56;;;;;;;14.40;9.30;;;;;;;16.77;72.76;155670.97;4981117;28;20885;-86
2023/07/03 02:54:24;;;;;;;14.57;9.67;;;;;;;16.74;71.93;155663.16;4974579;28;20582;-87
2023/07/03 02:56:50;;;;;;;11.60;8.33;;;;;;;16.74;71.50;155661.88;4976121;28;20527;-87
2023/07/03 02:59:17;;;;;;;14.83;8.93;;;;;;;16.75;73.10;155664.47;5004111;28;20464;-86
2023/07/03 03:01:44;;;;;;;13.63;9.67;;;;;;;16.74;72.84;155663.16;4989145;28;20456;-86
2023/07/03 03:04:11;;;;;;;12.83;9.67;;;;;;;16.74;72.91;155663.16;4969376;28;22502;-87
2023/07/03 03:06:39;;;;;;;12.97;9.33;;;;;;;16.74;73.75;155663.16;4999072;28;20461;-86
2023/07/03 03:09:08;;;;;;;18.53;9.77;;;;;;;16.70;73.10;155652.78;4984810;28;20462;-87
2023/07/03 03:11:36;;;;;;;14.40;9.77;;;;;;;16.70;74.03;155652.78;4972424;28;20471;-86
2023/07/03 03:14:04;;;;;;;12.67;9.43;;;;;;;16.70;73.70;155652.78;4988616;28;20471;-86
2023/07/03 03:16:33;;;;;;;13.30;9.83;;;;;;;16.67;72.82;155643.66;4997868;28;20460;-86
2023/07/03 03:19:01;;;;;;;14.53;9.90;;;;;;;16.67;73.10;155643.66;5008130;28;20464;-86
2023/07/03 03:21:28;;;;;;;14.80;10.00;;;;;;;16.69;73.57;155650.16;4988929;28;20994;-87
2023/07/03 03:23:56;;;;;;;13.37;9.60;;;;;;;16.70;73.77;155652.78;4972280;28;20571;-86
2023/07/03 03:26:23;;;;;;;16.60;10.23;;;;;;;16.67;73.91;155644.97;4992017;28;20464;-86
2023/07/03 03:28:50;;;;;;;14.00;10.23;;;;;;;16.66;73.56;155642.34;4968276;28;20461;-86
2023/07/03 03:31:17;;;;;;;13.33;9.70;;;;;;;16.65;73.32;155638.47;4999697;28;20449;-86
2023/07/03 03:33:51;;;;;;;14.53;9.20;;;;;;;16.63;73.91;155633.22;4982273;28;20569;-86
2023/07/03 03:36:18;;;;;;;16.33;10.30;;;;;;;16.62;74.06;155631.97;4996236;28;20454;-87
2023/07/03 03:38:45;;;;;;;14.23;9.40;;;;;;;16.64;75.16;155637.16;4974447;28;20465;-87
2023/07/03 03:41:13;;;;;;;15.60;9.73;;;;;;;16.62;74.04;155630.66;4973544;28;20767;-86
2023/07/03 03:43:46;;;;;;;12.50;9.93;;;;;;;16.63;74.25;155633.22;4991633;28;20474;-86
2023/07/03 03:46:13;;;;;;;19.20;11.40;;;;;;;16.62;73.55;155631.97;4948107;28;20465;-86
2023/07/03 03:48:40;;;;;;;15.27;10.37;;;;;;;16.61;74.93;155629.34;4981742;28;20486;-86
2023/07/03 03:51:09;;;;;;;16.60;9.30;;;;;;;16.59;73.32;155624.16;4989282;28;20999;-87
2023/07/03 03:53:36;;;;;;;12.10;9.60;;;;;;;16.61;74.20;155629.34;5000009;28;20465;-86
2023/07/03 03:56:03;;;;;;;15.30;10.20;;;;;;;16.63;74.21;155634.53;5000978;28;20476;-87
2023/07/03 03:58:37;;;;;;;15.07;10.50;;;;;;;16.63;73.51;155634.53;4984072;28;20449;-87
2023/07/03 04:01:04;;;;;;;15.33;10.43;;;;;;;16.65;73.96;155639.78;4976137;28;20454;-86
2023/07/03 04:03:30;;;;;;;14.73;9.93;;;;;;;16.64;75.09;155637.16;4963697;28;20477;-87
2023/07/03 04:05:58;;;;;;;11.83;9.40;;;;;;;16.64;74.61;155637.16;4982577;28;21227;-86
2023/07/03 04:08:24;;;;;;;18.40;10.20;;;;;;;16.63;74.38;155633.22;5002639;28;20465;-86
2023/07/03 04:10:51;;;;;;;14.83;9.80;;;;;;;16.63;74.58;155634.53;4987626;28;20536;-86
2023/07/03 04:13:17;;;;;;;14.73;9.63;;;;;;;16.64;75.59;155637.16;4971525;28;20443;-86
2023/07/03 04:15:59;;;;;;;15.03;8.80;;;;;;;16.64;76.06;155637.16;5000208;28;20457;-86
2023/07/03 04:18:26;;;;;;;14.20;9.13;;;;;;;16.62;74.65;155631.97;4993856;28;20462;-87
2023/07/03 04:20:52;;;;;;;11.07;9.00;;;;;;;16.65;75.17;155638.47;5000429;28;20477;-88
2023/07/03 04:23:19;;;;;;;11.90;8.43;;;;;;;16.63;74.65;155634.53;4951129;28;20493;-87
2023/07/03 04:25:46;;;;;;;11.37;8.60;;;;;;;16.65;74.91;155639.78;4999957;28;20558;-87
2023/07/03 04:28:14;;;;;;;13.10;9.23;;;;;;;16.66;75.71;155642.34;4978167;28;20500;-87
2023/07/03 04:30:43;;;;;;;14.47;9.93;;;;;;;16.66;73.90;155641.03;4997683;28;20458;-87
2023/07/03 04:33:11;;;;;;;13.73;9.97;;;;;;;16.66;74.49;155642.34;5001178;28;20474;-87
2023/07/03 04:35:38;;;;;;;14.57;9.40;;;;;;;16.70;74.95;155651.47;4951933;28;20817;-87
2023/07/03 04:38:05;;;;;;;10.43;8.17;;;;;;;16.71;74.34;155654.03;4968373;28;20516;-87
2023/07/03 04:40:34;;;;;;;12.47;8.90;;;;;;;16.74;74.78;155661.88;4989013;28;20995;-87
2023/07/03 04:43:01;;;;;;;12.83;8.97;;;;;;;16.75;75.00;155665.78;4982516;28;20493;-87
2023/07/03 04:45:30;;;;;;;15.13;10.10;;;;;;;16.75;75.13;155665.78;4999657;28;20825;-88
2023/07/03 04:47:57;;;;;;;13.60;9.07;;;;;;;16.75;75.69;155664.47;5004096;28;20457;-87
2023/07/03 04:50:29;;;;;;;12.73;9.30;;;;;;;16.73;75.16;155660.53;4962858;28;20485;-89
2023/07/03 04:52:56;;;;;;;12.63;8.40;;;;;;;16.74;76.07;155663.16;4963395;28;20460;-90
2023/07/03 04:55:23;;;;;;;12.63;8.67;;;;;;;16.74;76.45;155663.16;4986151;28;20524;-88
2023/07/03 04:57:50;;;;;;;10.30;7.97;;;;;;;16.76;75.49;155667.09;4994263;28;20505;-89
2023/07/03 05:00:19;;;;;;;11.80;8.90;;;;;;;16.78;74.85;155673.59;4955027;28;20477;-89
2023/07/03 05:02:48;;;;;;;13.07;8.20;;;;;;;16.80;75.20;155678.78;5003351;28;20496;-89
2023/07/03 05:05:15;;;;;;;10.90;8.77;;;;;;;16.85;74.42;155691.81;4987845;28;20497;-89
2023/07/03 05:07:44;;;;;;;12.10;8.80;;;;;;;16.89;74.01;155700.94;4979039;28;20924;-79
2023/07/03 05:10:12;;;;;;;11.90;8.20;;;;;;;16.97;74.30;155723.00;4992694;28;20466;-79
2023/07/03 05:12:39;;;;;;;11.13;7.77;;;;;;;17.02;74.19;155736.00;4992946;28;20795;-80
2023/07/03 05:15:08;;;;;;;13.20;9.03;;;;;;;17.02;74.04;155736.00;4977841;28;20457;-79
2023/07/03 05:17:38;;;;;;;12.30;9.17;;;;;;;17.11;75.05;155756.84;4998246;28;20480;-79
2023/07/03 05:20:08;;;;;;;13.20;8.47;;;;;;;17.16;74.63;155769.84;4992309;28;20462;-79
2023/07/03 05:22:37;;;;;;;10.70;8.50;;;;;;;17.21;72.93;155784.16;4959787;28;20640;-80
2023/07/03 05:25:06;;;;;;;11.13;8.23;;;;;;;17.28;73.22;155802.41;4990580;28;20482;-79
2023/07/03 05:27:33;;;;;;;12.63;8.70;;;;;;;17.34;74.61;155816.72;4991467;28;20454;-79
2023/07/03 05:29:59;;;;;;;10.57;8.70;;;;;;;17.35;73.52;155820.63;4994095;28;20908;-79
2023/07/03 05:32:26;;;;;;;10.60;8.57;;;;;;;17.38;74.59;155828.44;4977285;28;21043;-78
2023/07/03 05:34:53;;;;;;;11.40;8.03;;;;;;;17.39;73.30;155829.75;5001329;28;20464;-79
2023/07/03 05:37:19;;;;;;;11.20;7.70;;;;;;;17.41;73.91;155834.94;4998393;28;21066;-78
2023/07/03 05:39:48;;;;;;;12.80;8.43;;;;;;;17.41;73.55;155834.94;4982571;28;20474;-78
2023/07/03 05:42:16;;;;;;;12.50;8.77;;;;;;;17.46;73.35;155847.94;4997761;28;21085;-78
2023/07/03 05:48:09;;;;;;;12.10;8.13;;;;;;;17.64;73.83;155896.16;4978163;28;20449;-78
2023/07/03 05:50:35;;;;;;;10.03;8.27;;;;;;;17.80;73.03;155936.53;4954733;28;20567;-78
2023/07/03 05:53:02;;;;;;;12.67;8.67;;;;;;;17.96;72.02;155978.19;4991260;28;20453;-78
2023/07/03 05:55:29;;;;;;;9.60;7.60;;;;;;;18.10;73.12;156013.34;4980672;28;20452;-79
2023/07/03 05:57:57;;;;;;;10.80;7.93;;;;;;;18.10;70.84;156014.66;5039118;23;21379;-76
2023/07/03 06:00:24;;;;;;;10.23;8.03;;;;;;;18.12;71.17;156019.88;5009159;28;20681;-75
2023/07/03 06:02:53;;;;;;;11.80;7.90;;;;;;;18.17;71.72;156032.88;4990410;28;20483;-75
2023/07/03 06:05:20;;;;;;;10.63;8.50;;;;;;;18.20;70.46;156040.69;5008290;28;20962;-76
2023/07/03 06:07:46;;;;;;;14.87;7.83;;;;;;;18.32;71.76;156070.63;5006921;28;20481;-75
2023/07/03 06:10:13;;;;;;;10.63;8.30;;;;;;;18.42;72.08;156095.41;5006773;28;20465;-76
2023/07/03 06:12:40;;;;;;;8.70;6.90;;;;;;;18.45;70.80;156103.22;4988039;28;20488;-76
2023/07/03 06:15:09;;;;;;;9.93;7.47;;;;;;;18.52;70.07;156121.50;5004451;28;20492;-76
2023/07/03 06:17:38;;;;;;;9.67;7.97;;;;;;;18.64;70.20;156152.75;4988602;28;21074;-76
2023/07/03 06:20:06;;;;;;;12.17;8.87;;;;;;;18.67;69.50;156160.56;4999434;28;20458;-76
2023/07/03 06:22:33;;;;;;;12.27;7.83;;;;;;;18.72;69.51;156173.59;4986728;28;20456;-76
2023/07/03 06:25:00;;;;;;;9.50;7.07;;;;;;;18.79;69.91;156191.84;4990275;28;20838;-76
2023/07/03 06:31:53;;;;;;;12.20;8.70;;;;;;;18.94;70.29;156230.94;4998894;28;20499;-76
2023/07/03 06:34:20;;;;;;;8.70;7.50;;;;;;;18.97;69.20;156238.75;4991916;28;20452;-76
2023/07/03 06:36:46;;;;;;;13.40;7.70;;;;;;;19.02;70.13;156251.78;5006892;28;20713;-76
2023/07/03 06:39:22;;;;;;;12.27;7.63;;;;;;;19.06;69.81;156262.19;5004071;28;20453;-76
2023/07/03 06:41:49;;;;;;;9.20;7.07;;;;;;;19.06;68.67;156262.19;5000289;28;20452;-76
2023/07/03 06:44:19;;;;;;;12.70;7.40;;;;;;;19.08;67.99;156267.44;4968645;28;20544;-76
2023/07/03 06:46:45;;;;;;;10.40;7.17;;;;;;;19.13;69.27;156280.47;5002297;28;20467;-76
2023/07/03 06:49:13;;;;;;;10.30;7.03;;;;;;;19.16;69.61;156286.97;4985107;28;20453;-77
2023/07/03 06:51:41;;;;;;;8.77;6.33;;;;;;;19.15;67.37;156285.66;4994813;28;20460;-76
2023/07/03 06:54:07;;;;;;;12.37;7.50;;;;;;;19.18;67.81;156293.50;4987880;28;20439;-76
2023/07/03 06:56:34;;;;;;;13.50;8.47;;;;;;;19.22;67.77;156303.88;5005962;28;20441;-76
2023/07/03 06:59:01;;;;;;;8.50;7.30;;;;;;;19.29;67.28;156320.84;4981399;28;20484;-76
2023/07/03 07:01:28;;;;;;;9.27;8.23;;;;;;;19.39;68.50;156348.28;4988713;28;21066;-76
2023/07/03 07:03:55;;;;;;;10.37;7.43;;;;;;;19.51;67.96;156376.97;4978478;28;20453;-77
2023/07/03 07:06:31;;;;;;;11.27;7.40;;;;;;;19.75;66.31;156439.56;4982802;28;20515;-76
2023/07/03 07:09:00;;;;;;;10.90;7.20;;;;;;;20.07;64.72;156522.94;4982447;28;20608;-76
2023/07/03 07:11:27;;;;;;;10.77;8.67;;;;;;;20.29;64.66;156579.09;4992122;28;20736;-76
2023/07/03 07:13:56;;;;;;;17.40;7.40;;;;;;;20.61;64.54;156663.91;4989891;28;20461;-77
2023/07/03 07:16:31;;;;;;;10.40;8.20;;;;;;;21.08;62.90;156783.97;4990151;28;20590;-77
2023/07/03 07:19:00;;;;;;;10.53;6.23;;;;;;;21.48;61.85;156888.38;5003771;28;20449;-77
2023/07/03 07:21:26;;;;;;;10.17;7.03;;;;;;;21.72;60.38;156951.06;4990605;28;20452;-77
2023/07/03 07:23:56;;;;;;;9.23;7.40;;;;;;;22.05;60.30;157034.69;5006829;28;20479;-77
2023/07/03 07:26:23;;;;;;;11.30;7.40;;;;;;;22.29;57.57;157097.38;5006043;28;20528;-77
2023/07/03 07:28:50;;;;;;;10.40;7.73;;;;;;;22.34;55.68;157110.44;5006554;28;20456;-77
2023/07/03 07:31:20;;;;;;;9.53;6.70;;;;;;;22.36;58.03;157116.97;4990117;28;20901;-77
2023/07/03 07:33:47;;;;;;;10.43;7.83;;;;;;;22.23;57.91;157083.00;5006045;28;20456;-77
2023/07/03 07:36:14;;;;;;;8.53;7.40;;;;;;;22.09;59.00;157045.09;4987046;28;20468;-77
2023/07/03 07:38:40;;;;;;;12.50;8.07;;;;;;;21.92;56.74;157000.72;5008181;28;20479;-76
2023/07/03 07:41:08;;;;;;;10.83;7.17;;;;;;;21.84;57.45;156982.38;4987583;28;20548;-77
2023/07/03 07:43:35;;;;;;;8.47;7.00;;;;;;;21.74;59.25;156956.25;5003932;28;20457;-77
2023/07/03 07:46:01;;;;;;;12.23;7.13;;;;;;;21.66;59.90;156935.38;5003013;28;20488;-76
2023/07/03 07:48:28;;;;;;;9.77;7.27;;;;;;;21.64;57.41;156928.84;4989168;28;20457;-77
2023/07/03 07:50:55;;;;;;;9.27;6.20;;;;;;;21.61;59.58;156922.31;4988160;28;21180;-77
2023/07/03 07:53:21;;;;;;;11.00;7.80;;;;;;;21.53;60.12;156901.44;5005973;28;20468;-76
2023/07/03 07:55:48;;;;;;;9.77;7.97;;;;;;;21.39;60.34;156864.91;4986715;28;20455;-77
2023/07/03 07:58:16;;;;;;;8.87;7.13;;;;;;;21.33;61.01;156847.94;4988022;28;20994;-77
2023/07/03 08:00:44;;;;;;;9.77;7.90;;;;;;;21.30;61.58;156840.09;5006070;28;20452;-76
2023/07/03 08:03:11;;;;;;;10.70;8.20;;;;;;;21.24;61.71;156825.72;5001768;28;20462;-76
2023/07/03 08:05:38;;;;;;;9.97;7.30;;;;;;;21.22;61.72;156820.53;5002926;28;20480;-75
2023/07/03 08:08:05;;;;;;;10.13;7.27;;;;;;;21.23;62.33;156824.41;5003813;28;20453;-75
2023/07/03 08:10:31;;;;;;;8.10;6.90;;;;;;;21.28;61.56;156834.88;5004557;28;20475;-75
2023/07/03 08:12:58;;;;;;;11.00;7.27;;;;;;;21.31;60.66;156844.03;4989020;28;20467;-75
2023/07/03 08:15:26;;;;;;;10.13;7.03;;;;;;;21.34;62.62;156851.81;4989292;28;20451;-76
2023/07/03 08:17:52;;;;;;;11.07;8.60;;;;;;;21.39;63.09;156864.91;4988598;28;20469;-76
2023/07/03 08:20:19;;;;;;;11.50;8.07;;;;;;;21.57;59.51;156911.91;5004622;28;20527;-77
2023/07/03 08:22:45;;;;;;;13.97;7.07;;;;;;;21.76;58.93;156961.47;5006531;28;20457;-77
2023/07/03 08:25:12;;;;;;;12.63;8.33;;;;;;;21.83;59.45;156979.78;4994920;28;20927;-77
2023/07/03 08:27:38;;;;;;;9.30;7.70;;;;;;;21.85;59.29;156985.00;4987724;28;21009;-77
2023/07/03 08:30:07;;;;;;;9.03;7.23;;;;;;;21.80;59.12;156971.94;4987065;28;20515;-77
2023/07/03 08:32:35;;;;;;;9.63;6.50;;;;;;;21.76;58.26;156961.47;5006335;28;20460;-76
2023/07/03 08:35:02;;;;;;;10.03;7.37;;;;;;;21.82;59.94;156977.16;4971531;28;20456;-75
2023/07/03 08:37:28;;;;;;;9.07;7.00;;;;;;;21.81;57.73;156974.56;4993236;28;21018;-75
2023/07/03 08:39:55;;;;;;;8.97;7.50;;;;;;;21.83;57.05;156978.47;5003646;28;20461;-78
2023/07/03 08:42:47;;;;;;;9.53;7.47;;;;;;;21.84;58.79;156982.38;5113245;27;20652;-75
2023/07/03 08:45:16;;;;;;;7.03;6.27;;;;;;;21.82;56.27;156975.84;5130651;27;20483;-78
2023/07/03 08:47:42;;;;;;;10.03;6.90;;;;;;;22.07;56.89;157041.22;5112323;27;20455;-78
2023/07/03 08:50:11;;;;;;;14.77;8.23;;;;;;;22.30;56.44;157099.94;5093820;28;20548;-77
2023/07/03 08:52:40;;;;;;;9.63;7.60;;;;;;;22.47;55.55;157143.06;5092760;28;20456;-78
2023/07/03 08:55:12;;;;;;;10.27;6.67;;;;;;;22.65;54.64;157191.47;5107142;28;21020;-78
2023/07/03 08:57:40;;;;;;;8.60;7.20;;;;;;;22.69;55.11;157201.88;5113584;28;20461;-77
2023/07/03 09:00:10;;;;;;;11.93;7.33;;;;;;;22.61;56.36;157179.66;5091144;28;21022;-77
2023/07/03 09:02:42;;;;;;;10.50;7.20;;;;;;;22.50;57.51;157152.22;5127640;27;20471;-77
2023/07/03 09:05:20;;;;;;;9.80;7.67;;;;;;;22.37;55.82;157119.53;5103847;28;20466;-77
2023/07/03 09:07:48;;;;;;;9.20;7.40;;;;;;;22.27;56.38;157092.13;5111785;28;20459;-77
2023/07/03 09:10:19;;;;;;;9.87;7.20;;;;;;;22.13;57.95;157055.56;5114393;27;20453;-77
2023/07/03 09:12:52;;;;;;;12.40;7.33;;;;;;;21.99;53.60;157020.31;5114633;27;21044;-77
2023/07/03 09:15:23;;;;;;;7.77;6.80;;;;;;;21.99;54.83;157019.00;5109046;28;20439;-77
2023/07/03 09:17:50;;;;;;;11.63;6.93;;;;;;;22.10;58.09;157047.72;5113474;27;20815;-77
2023/07/03 09:20:17;;;;;;;9.40;7.40;;;;;;;22.35;58.01;157113.00;5095866;27;20953;-77
2023/07/03 09:22:47;;;;;;;9.30;7.40;;;;;;;22.62;55.34;157182.25;5093833;28;20545;-78
2023/07/03 09:25:19;;;;;;;9.90;6.73;;;;;;;22.70;53.51;157203.19;5112321;28;20436;-78
2023/07/03 09:27:49;;;;;;;12.47;7.60;;;;;;;22.87;51.91;157248.97;5110840;28;20829;-78
2023/07/03 09:30:16;;;;;;;11.90;8.27;;;;;;;22.97;54.72;157273.75;5102953;28;20493;-77
2023/07/03 09:32:43;;;;;;;11.87;7.27;;;;;;;22.91;53.72;157258.06;5093198;28;20451;-77
2023/07/03 09:35:13;;;;;;;10.63;6.80;;;;;;;22.86;52.08;157246.31;5111229;27;20452;-77
2023/07/03 09:37:41;;;;;;;8.90;6.77;;;;;;;22.89;55.98;157254.16;5113263;28;20544;-77
2023/07/03 09:40:14;;;;;;;10.53;7.20;;;;;;;22.83;55.03;157237.16;5113899;28;20780;-77
2023/07/03 09:42:41;;;;;;;11.73;7.23;;;;;;;22.81;54.38;157233.25;5105792;27;20536;-77
2023/07/03 09:45:15;;;;;;;11.90;7.43;;;;;;;22.88;54.44;157250.22;5112508;28;20456;-77
2023/07/03 09:47:42;;;;;;;13.83;7.80;;;;;;;22.84;54.12;157239.78;5109807;28;20859;-77
2023/07/03 09:50:10;;;;;;;10.27;7.33;;;;;;;23.14;51.84;157318.16;5106530;28;20439;-78
2023/07/03 09:52:42;;;;;;;9.20;6.60;;;;;;;23.47;52.26;157403.19;5101663;27;20458;-78
2023/07/03 09:55:09;;;;;;;9.10;6.60;;;;;;;23.67;49.33;157455.47;5049740;28;21008;-78
2023/07/03 09:57:35;;;;;;;9.47;6.23;;;;;;;23.98;49.75;157535.25;5057168;28;20472;-78
2023/07/03 10:00:11;;;;;;;10.60;6.97;;;;;;;24.10;50.12;157567.97;5059122;28;20446;-78
2023/07/03 10:02:39;;;;;;;8.90;6.27;;;;;;;24.11;50.11;157570.59;5055305;28;20842;-78
2023/07/03 10:05:06;;;;;;;13.77;6.60;;;;;;;24.16;50.21;157583.69;5073511;28;20805;-77
2023/07/03 10:07:34;;;;;;;10.70;6.53;;;;;;;23.91;48.94;157516.91;5057720;28;20454;-77
2023/07/03 10:10:01;;;;;;;11.90;6.50;;;;;;;23.80;50.13;157488.19;5057345;28;20535;-77
2023/07/03 10:12:32;;;;;;;7.80;6.13;;;;;;;23.77;50.99;157481.66;5047557;28;20528;-77
2023/07/03 10:15:03;;;;;;;11.87;6.87;;;;;;;23.79;52.20;157485.53;5053570;28;20510;-77
2023/07/03 10:17:32;;;;;;;8.50;6.00;;;;;;;23.79;52.39;157486.88;5054156;28;20560;-78
2023/07/03 10:20:04;;;;;;;7.60;5.33;;;;;;;23.83;50.45;157497.28;5058509;28;20446;-77
2023/07/03 10:22:32;;;;;;;12.03;6.13;;;;;;;23.81;50.53;157492.06;5070081;28;20888;-77
2023/07/03 10:25:04;;;;;;;7.47;5.93;;;;;;;23.80;48.72;157489.44;5044830;28;20592;-77
2023/07/03 10:27:32;;;;;;;7.07;5.67;;;;;;;23.74;47.73;157473.78;5069324;28;20461;-77
2023/07/03 10:30:00;;;;;;;9.80;6.50;;;;;;;23.72;49.81;157468.56;5070726;28;20458;-77
2023/07/03 10:32:28;;;;;;;7.90;5.87;;;;;;;23.66;49.59;157451.56;5069242;28;20566;-78
2023/07/03 10:34:58;;;;;;;10.90;5.77;;;;;;;23.85;49.08;157502.56;5054724;28;20457;-77
2023/07/03 10:37:27;;;;;;;8.90;5.70;;;;;;;23.99;47.68;157537.81;5071590;28;20838;-78
2023/07/03 10:39:54;;;;;;;9.90;5.50;;;;;;;24.18;49.25;157588.91;5037699;28;20445;-77
2023/07/03 10:42:24;;;;;;;9.90;6.03;;;;;;;24.34;45.99;157628.13;5035635;28;20478;-77
2023/07/03 10:44:54;;;;;;;10.50;6.10;;;;;;;24.44;46.19;157654.25;5036635;28;20478;-77
2023/07/03 10:47:24;;;;;;;9.50;5.40;;;;;;;24.54;47.77;157680.47;5055800;28;20477;-77
2023/07/03 10:49:51;;;;;;;5.00;4.17;;;;;;;24.54;44.63;157680.47;5055823;28;20451;-75
2023/07/03 10:52:25;;;;;;;5.67;4.70;;;;;;;24.53;45.95;157677.81;5070459;28;20470;-77
2023/07/03 10:55:02;;;;;;;6.60;4.67;;;;;;;24.45;45.57;157656.91;5071562;28;20450;-77
2023/07/03 10:57:34;;;;;;;8.17;4.67;;;;;;;24.40;45.71;157643.81;5054126;28;20596;-77
2023/07/03 11:00:06;;;;;;;5.57;4.20;;;;;;;24.44;44.45;157655.56;5053749;28;20987;-77
2023/07/03 11:02:42;;;;;;;5.90;4.50;;;;;;;24.49;47.02;157668.66;5055086;28;20536;-77
2023/07/03 11:05:14;;;;;;;5.80;3.97;;;;;;;24.47;47.24;157662.13;5070205;28;21077;-77
2023/07/03 11:07:47;;;;;;;4.73;3.80;;;;;;;24.43;46.03;157651.69;5037889;28;20450;-77
2023/07/03 11:10:21;;;;;;;5.40;3.37;;;;;;;24.40;45.51;157645.13;5041393;28;20460;-77
2023/07/03 11:12:53;;;;;;;4.90;3.70;;;;;;;24.39;45.20;157641.19;5055139;28;20466;-78
2023/07/03 11:15:34;;;;;;;4.40;3.67;;;;;;;24.39;47.21;157641.19;5054667;28;20461;-77
2023/07/03 11:18:10;;;;;;;4.70;2.97;;;;;;;24.42;46.80;157649.03;5056533;28;20770;-77
2023/07/03 11:20:40;;;;;;;5.17;3.50;;;;;;;24.58;48.43;157692.22;5054832;28;20500;-77
2023/07/03 11:23:12;;;;;;;5.10;3.50;;;;;;;24.55;45.32;157684.38;5035797;28;20636;-77
2023/07/03 11:25:45;;;;;;;4.47;3.40;;;;;;;24.62;47.27;157701.38;5037058;28;20453;-77
2023/07/03 11:28:17;;;;;;;7.17;3.80;;;;;;;24.70;46.22;157723.59;5037623;28;20556;-77
2023/07/03 11:30:44;;;;;;;5.33;4.00;;;;;;;24.82;44.92;157753.75;5053279;28;20437;-76
2023/07/03 11:33:13;;;;;;;6.00;3.90;;;;;;;24.92;45.62;157779.91;5068871;28;20447;-77